Time;durP1;ratioP1;P1;durP2;ratioP2;P2;SDS_P1;SDS_P2;PMS_P1;PMS_P2;Temp;Humidity;BMP_temperature;BMP_pressure;BME280_temperature;BME280_humidity;BME280_pressure;Samples;Min_cycle;Max_cycle;Signal;HPM_P1;HPM_P2
2021/04/06 00:00:50;;;;;;;23.70;8.65;;;1.00;93.60;;;;;;5016704;28;20026;-79
2021/04/06 00:03:16;;;;;;;11.80;7.18;;;1.00;93.10;;;;;;5030967;28;20052;-78
2021/04/06 00:05:42;;;;;;;22.55;7.68;;;1.00;93.40;;;;;;5014671;28;20117;-79
2021/04/06 00:08:08;;;;;;;13.82;5.75;;;1.00;93.30;;;;;;5011499;28;20116;-79
2021/04/06 00:11:01;;;;;;;19.50;7.45;;;0.90;93.40;;;;;;5045042;28;20067;-78
2021/04/06 00:13:31;;;;;;;17.13;7.55;;;0.90;93.50;;;;;;5054312;28;20120;-78
2021/04/06 00:15:56;;;;;;;25.83;8.70;;;0.90;93.60;;;;;;5028615;28;20025;-78
2021/04/06 00:18:22;;;;;;;13.57;7.28;;;0.80;93.30;;;;;;5008513;28;20462;-78
2021/04/06 00:20:48;;;;;;;11.32;5.53;;;1.00;93.60;;;;;;5023921;28;20051;-78
2021/04/06 00:23:14;;;;;;;14.80;6.55;;;1.10;93.20;;;;;;5007808;28;20079;-78
2021/04/06 00:25:41;;;;;;;13.00;4.93;;;1.00;93.60;;;;;;5016030;28;20029;-78
2021/04/06 00:28:09;;;;;;;11.07;4.72;;;1.00;93.70;;;;;;5008518;28;20111;-77
2021/04/06 00:30:35;;;;;;;3.92;2.00;;;1.10;93.40;;;;;;5035122;28;20033;-77
2021/04/06 00:33:12;;;;;;;12.63;6.57;;;1.10;93.30;;;;;;5028424;28;20056;-78
2021/04/06 00:35:38;;;;;;;9.90;7.30;;;1.00;93.30;;;;;;5017272;28;20132;-78
2021/04/06 00:38:07;;;;;;;16.65;7.47;;;1.00;93.30;;;;;;5001206;28;20116;-78
2021/04/06 00:40:35;;;;;;;14.73;7.05;;;1.10;93.80;;;;;;5042379;28;20033;-78
2021/04/06 00:43:03;;;;;;;14.57;5.10;;;1.10;93.40;;;;;;5014644;28;20525;-80
2021/04/06 00:45:30;;;;;;;6.70;4.35;;;0.90;93.50;;;;;;5017968;28;20037;-80
2021/04/06 00:47:59;;;;;;;15.30;5.05;;;1.00;93.90;;;;;;5020890;28;20316;-78
2021/04/06 00:50:33;;;;;;;10.25;3.30;;;0.90;93.60;;;;;;5024905;28;20045;-80
2021/04/06 00:52:58;;;;;;;7.47;2.25;;;0.90;93.80;;;;;;5015959;28;20428;-78
2021/04/06 00:55:24;;;;;;;10.80;2.95;;;0.90;93.80;;;;;;5022817;28;20040;-77
2021/04/06 00:57:49;;;;;;;6.78;1.58;;;0.90;94.00;;;;;;5021681;28;20029;-79
2021/04/06 01:00:17;;;;;;;2.85;1.63;;;1.00;93.80;;;;;;5026996;28;20391;-78
2021/04/06 01:03:02;;;;;;;6.78;1.73;;;1.00;93.80;;;;;;5028184;28;20033;-78
2021/04/06 01:05:28;;;;;;;6.68;1.70;;;0.90;93.80;;;;;;5043175;28;20477;-78
2021/04/06 01:07:57;;;;;;;11.20;2.55;;;0.90;94.20;;;;;;5012392;28;20036;-78
2021/04/06 01:10:25;;;;;;;12.50;2.53;;;0.90;93.90;;;;;;5007360;28;20067;-78
2021/04/06 01:12:50;;;;;;;7.70;1.23;;;0.90;93.90;;;;;;5025087;28;20115;-78
2021/04/06 01:15:18;;;;;;;11.68;2.20;;;0.90;93.90;;;;;;5006682;28;20603;-78
2021/04/06 01:17:43;;;;;;;2.42;1.60;;;1.00;93.80;;;;;;5026316;28;20108;-78
2021/04/06 01:20:12;;;;;;;8.45;2.00;;;1.00;93.70;;;;;;5018620;28;20167;-78
2021/04/06 01:22:38;;;;;;;4.35;0.90;;;1.00;93.70;;;;;;5027659;28;20029;-78
2021/04/06 01:25:05;;;;;;;2.47;1.15;;;1.00;93.70;;;;;;5025712;28;20573;-78
2021/04/06 01:27:30;;;;;;;8.52;1.38;;;0.90;93.90;;;;;;5041288;28;20124;-77
2021/04/06 01:29:56;;;;;;;9.68;1.80;;;1.00;93.70;;;;;;5009150;28;20039;-77
2021/04/06 01:32:26;;;;;;;7.55;1.25;;;0.90;93.80;;;;;;5031521;28;20119;-77
2021/04/06 01:34:52;;;;;;;10.13;1.77;;;1.00;94.10;;;;;;5018284;28;20041;-78
2021/04/06 01:37:21;;;;;;;7.65;1.70;;;0.90;93.80;;;;;;5023115;28;20029;-77
2021/04/06 01:39:50;;;;;;;6.88;1.73;;;1.00;93.70;;;;;;5035311;28;20032;-77
2021/04/06 01:42:15;;;;;;;8.27;1.50;;;1.00;93.80;;;;;;5005727;28;20045;-78
2021/04/06 01:44:44;;;;;;;9.05;1.58;;;1.00;93.90;;;;;;5018859;28;20055;-77
2021/04/06 01:47:13;;;;;;;7.57;1.80;;;1.00;93.70;;;;;;5037276;28;20121;-77
2021/04/06 01:49:38;;;;;;;14.93;2.17;;;1.00;93.70;;;;;;5017184;28;20024;-77
2021/04/06 01:52:04;;;;;;;9.90;1.58;;;0.80;94.00;;;;;;5035849;28;20029;-77
2021/04/06 01:54:30;;;;;;;7.15;2.63;;;0.90;93.90;;;;;;5026861;28;20040;-77
2021/04/06 01:57:00;;;;;;;6.93;1.00;;;1.00;93.80;;;;;;5029157;28;20082;-77
2021/04/06 01:59:33;;;;;;;8.25;1.27;;;1.00;93.80;;;;;;5019321;28;20172;-77
2021/04/06 02:02:01;;;;;;;4.35;1.30;;;0.90;93.70;;;;;;5024601;28;20052;-78
2021/04/06 02:04:27;;;;;;;6.95;1.70;;;1.00;94.00;;;;;;5008507;28;20542;-77
2021/04/06 02:06:54;;;;;;;7.88;1.58;;;1.00;93.60;;;;;;5022573;28;20503;-77
2021/04/06 02:09:20;;;;;;;7.80;1.80;;;1.00;93.70;;;;;;5010516;28;20732;-78
2021/04/06 02:11:46;;;;;;;10.63;2.00;;;1.00;93.50;;;;;;5032345;28;20044;-78
2021/04/06 02:14:16;;;;;;;6.05;1.48;;;1.10;93.60;;;;;;5009680;28;20076;-78
2021/04/06 02:17:01;;;;;;;3.50;1.10;;;1.00;93.60;;;;;;5046630;28;20044;-78
2021/04/06 02:19:39;;;;;;;4.65;1.83;;;1.00;93.70;;;;;;5018767;28;20111;-78
2021/04/06 02:22:08;;;;;;;10.80;1.88;;;1.00;93.90;;;;;;5039131;28;20057;-79
2021/04/06 02:24:40;;;;;;;11.70;2.85;;;1.10;93.80;;;;;;5038233;28;20049;-79
2021/04/06 02:27:14;;;;;;;8.23;2.45;;;1.10;93.50;;;;;;5021527;28;20037;-78
2021/04/06 02:29:41;;;;;;;14.10;4.18;;;1.00;93.70;;;;;;5029764;28;20047;-79
2021/04/06 02:32:11;;;;;;;20.70;5.03;;;1.00;93.80;;;;;;5023014;28;20483;-78
2021/04/06 02:34:38;;;;;;;9.50;2.63;;;1.00;93.50;;;;;;5011842;28;20571;-79
2021/04/06 02:37:03;;;;;;;19.77;6.70;;;1.00;93.70;;;;;;5025896;28;20033;-79
2021/04/06 02:39:29;;;;;;;7.07;3.35;;;1.00;93.40;;;;;;5005429;28;20041;-78
2021/04/06 02:41:55;;;;;;;8.30;3.75;;;1.10;93.60;;;;;;5007274;28;20037;-79
2021/04/06 02:44:20;;;;;;;13.82;6.32;;;1.10;93.70;;;;;;5026318;28;20040;-79
2021/04/06 02:46:51;;;;;;;13.52;6.95;;;1.10;93.40;;;;;;5029208;28;20392;-79
2021/04/06 02:49:16;;;;;;;8.70;4.93;;;1.00;93.50;;;;;;5011390;28;20393;-78
2021/04/06 02:51:42;;;;;;;14.43;7.47;;;1.10;93.60;;;;;;5013415;28;20033;-79
2021/04/06 02:54:08;;;;;;;16.25;7.35;;;1.00;93.80;;;;;;5024464;28;20035;-78
2021/04/06 02:56:34;;;;;;;18.73;6.40;;;1.00;93.90;;;;;;5010680;28;20040;-79
2021/04/06 02:59:13;;;;;;;15.57;6.65;;;0.90;93.80;;;;;;5044679;28;20025;-79
2021/04/06 03:01:39;;;;;;;19.40;6.97;;;1.10;93.70;;;;;;5025740;28;20040;-78
2021/04/06 03:04:27;;;;;;;6.22;2.38;;;1.10;93.70;;;;;;5012795;28;20071;-78
2021/04/06 03:06:53;;;;;;;12.93;5.43;;;1.10;93.60;;;;;;5051017;28;20032;-78
2021/04/06 03:09:20;;;;;;;13.95;5.70;;;1.10;93.80;;;;;;5035504;28;20030;-78
2021/04/06 03:11:52;;;;;;;11.68;4.88;;;1.10;93.70;;;;;;5013827;28;20779;-78
2021/04/06 03:14:21;;;;;;;18.23;5.05;;;1.20;93.40;;;;;;5014244;28;20510;-78
2021/04/06 03:16:49;;;;;;;15.18;4.90;;;1.10;93.50;;;;;;5013702;28;20362;-78
2021/04/06 03:19:14;;;;;;;15.05;3.97;;;1.00;93.70;;;;;;5005468;28;20037;-78
2021/04/06 03:21:40;;;;;;;14.32;3.45;;;0.90;93.80;;;;;;5019901;28;20029;-78
2021/04/06 03:24:07;;;;;;;13.30;3.33;;;1.00;93.70;;;;;;5009119;28;20092;-78
2021/04/06 03:26:32;;;;;;;12.70;3.50;;;1.00;93.80;;;;;;5028757;28;20040;-78
2021/04/06 03:28:59;;;;;;;12.88;3.50;;;0.90;93.80;;;;;;5033662;28;20039;-78
2021/04/06 03:31:30;;;;;;;10.13;3.20;;;0.90;93.80;;;;;;5043220;28;20049;-78
2021/04/06 03:33:57;;;;;;;10.93;2.65;;;1.00;93.80;;;;;;5025666;28;20097;-78
2021/04/06 03:36:23;;;;;;;14.57;3.13;;;1.00;93.90;;;;;;5025845;28;20029;-78
2021/04/06 03:38:50;;;;;;;11.68;2.90;;;1.00;93.80;;;;;;5043450;28;20041;-78
2021/04/06 03:41:17;;;;;;;11.40;2.63;;;1.00;93.80;;;;;;5014630;28;20504;-78
2021/04/06 03:43:42;;;;;;;13.77;3.00;;;1.00;93.90;;;;;;5013999;28;20021;-78
2021/04/06 03:46:08;;;;;;;9.23;2.35;;;0.90;93.80;;;;;;5012978;28;20101;-78
2021/04/06 03:48:35;;;;;;;11.27;2.78;;;1.00;93.70;;;;;;5033507;28;20552;-78
2021/04/06 03:51:01;;;;;;;10.73;3.10;;;1.10;93.60;;;;;;5024742;28;20033;-78
2021/04/06 03:53:40;;;;;;;10.55;4.07;;;1.10;93.70;;;;;;5027776;28;20026;-79
2021/04/06 03:56:13;;;;;;;10.23;4.70;;;1.10;93.50;;;;;;5044694;28;20070;-78
2021/04/06 04:01:06;;;;;;;10.75;4.00;;;1.10;93.60;;;;;;5023323;28;20032;-79
2021/04/06 04:03:32;;;;;;;11.20;3.85;;;1.10;93.70;;;;;;5010045;28;20116;-79
2021/04/06 04:05:58;;;;;;;7.88;3.50;;;1.00;93.70;;;;;;5017255;28;20118;-79
2021/04/06 04:08:23;;;;;;;11.45;5.07;;;1.10;93.60;;;;;;5014008;28;20053;-78
2021/04/06 04:10:49;;;;;;;10.25;3.97;;;1.10;93.40;;;;;;5040360;28;20032;-78
2021/04/06 04:13:14;;;;;;;23.27;9.65;;;1.10;93.70;;;;;;5006923;28;20021;-79
2021/04/06 04:15:40;;;;;;;9.73;5.40;;;1.10;93.40;;;;;;5034957;28;20029;-78
2021/04/06 04:18:05;;;;;;;28.13;12.40;;;1.10;93.50;;;;;;5006653;28;20029;-79
2021/04/06 04:20:31;;;;;;;29.20;13.38;;;1.00;93.40;;;;;;5023315;28;20025;-79
2021/04/06 04:22:56;;;;;;;16.23;5.45;;;0.80;94.30;;;;;;5025880;28;20048;-79
2021/04/06 04:25:22;;;;;;;14.70;3.75;;;0.60;95.10;;;;;;5022754;28;20029;-79
2021/04/06 04:27:48;;;;;;;9.65;2.33;;;0.70;95.20;;;;;;5026542;28;20466;-79
2021/04/06 04:30:14;;;;;;;8.40;2.72;;;0.70;94.70;;;;;;5003744;28;20328;-79
2021/04/06 04:32:40;;;;;;;5.63;2.03;;;0.80;94.90;;;;;;5010110;28;20033;-79
2021/04/06 04:35:06;;;;;;;8.68;1.63;;;0.80;94.50;;;;;;5010044;28;20034;-78
2021/04/06 04:37:31;;;;;;;4.80;1.95;;;0.70;94.50;;;;;;5018457;28;20032;-79
2021/04/06 04:39:57;;;;;;;5.60;1.38;;;0.80;94.30;;;;;;5012656;28;20024;-79
2021/04/06 04:42:22;;;;;;;4.22;1.48;;;0.80;94.30;;;;;;5010755;28;20032;-79
2021/04/06 04:44:48;;;;;;;9.15;1.33;;;0.80;94.20;;;;;;5014576;28;20062;-79
2021/04/06 04:47:14;;;;;;;6.45;1.40;;;0.80;94.20;;;;;;5022912;28;20447;-79
2021/04/06 04:49:39;;;;;;;11.77;1.55;;;0.80;94.40;;;;;;5014790;28;20033;-79
2021/04/06 04:52:05;;;;;;;7.20;1.23;;;0.70;94.40;;;;;;5012520;28;20033;-80
2021/04/06 04:54:30;;;;;;;4.93;1.05;;;0.70;94.70;;;;;;5009697;28;20041;-79
2021/04/06 04:56:56;;;;;;;7.10;1.38;;;0.80;94.40;;;;;;5020404;28;20097;-79
2021/04/06 04:59:21;;;;;;;7.47;1.23;;;0.80;94.30;;;;;;5018932;28;20033;-79
2021/04/06 05:01:50;;;;;;;7.00;1.13;;;0.70;94.10;;;;;;5031510;28;20031;-79
2021/04/06 05:04:15;;;;;;;9.02;1.38;;;0.80;94.30;;;;;;5006486;28;20056;-79
2021/04/06 05:06:41;;;;;;;10.15;0.98;;;0.80;94.30;;;;;;5027519;28;20044;-80
2021/04/06 05:09:07;;;;;;;4.70;1.25;;;0.80;94.30;;;;;;5009252;28;20064;-80
2021/04/06 05:11:33;;;;;;;4.82;0.98;;;0.80;94.10;;;;;;5030905;28;20033;-80
2021/04/06 05:13:58;;;;;;;5.68;1.30;;;0.80;94.40;;;;;;5027632;28;20037;-80
2021/04/06 05:16:24;;;;;;;5.47;1.30;;;0.80;94.20;;;;;;5010379;28;20021;-78
2021/04/06 05:18:49;;;;;;;9.57;1.27;;;0.80;94.20;;;;;;5031381;28;20111;-78
2021/04/06 05:21:15;;;;;;;5.55;1.45;;;0.80;94.00;;;;;;5018388;28;20630;-80
2021/04/06 05:23:41;;;;;;;6.97;1.80;;;0.80;93.90;;;;;;5014711;28;20045;-80
2021/04/06 05:26:07;;;;;;;8.70;1.77;;;0.80;93.90;;;;;;5021178;28;20128;-80
2021/04/06 05:28:33;;;;;;;8.45;3.53;;;0.80;94.10;;;;;;5010293;28;20430;-80
2021/04/06 05:30:58;;;;;;;7.90;3.13;;;0.70;94.60;;;;;;5004660;28;20060;-80
2021/04/06 05:33:24;;;;;;;11.98;2.55;;;0.80;94.30;;;;;;5011950;28;20065;-80
2021/04/06 05:35:52;;;;;;;4.78;1.90;;;0.80;94.30;;;;;;5009031;28;20052;-80
2021/04/06 05:38:18;;;;;;;9.10;2.20;;;0.70;93.90;;;;;;5027646;28;20033;-80
2021/04/06 05:40:44;;;;;;;10.13;2.50;;;0.80;93.90;;;;;;5013831;28;20039;-80
2021/04/06 05:43:09;;;;;;;10.18;2.53;;;0.80;93.80;;;;;;5022368;28;20041;-80
2021/04/06 05:45:35;;;;;;;9.02;2.65;;;0.90;93.60;;;;;;5028341;28;20033;-79
2021/04/06 05:48:02;;;;;;;8.00;2.85;;;0.80;93.60;;;;;;5024474;28;20052;-79
2021/04/06 05:50:28;;;;;;;5.78;2.00;;;0.70;93.70;;;;;;5010160;28;20091;-79
2021/04/06 05:52:54;;;;;;;7.00;2.10;;;0.80;93.80;;;;;;5014782;28;20042;-79
2021/04/06 05:55:20;;;;;;;14.43;4.45;;;0.70;93.70;;;;;;5023316;28;20537;-80
2021/04/06 05:57:45;;;;;;;5.20;2.00;;;0.80;93.60;;;;;;5030953;28;20063;-79
2021/04/06 06:00:11;;;;;;;17.50;4.45;;;0.80;93.70;;;;;;5011687;28;20083;-79
2021/04/06 06:02:36;;;;;;;11.63;2.03;;;0.80;93.40;;;;;;5010600;28;20049;-78
2021/04/06 06:05:03;;;;;;;6.47;2.72;;;0.80;93.40;;;;;;5025035;28;20366;-79
2021/04/06 06:07:29;;;;;;;17.00;6.20;;;0.80;93.40;;;;;;5046435;28;20043;-79
2021/04/06 06:09:54;;;;;;;17.20;5.65;;;0.90;93.40;;;;;;5030752;28;21125;-79
2021/04/06 06:12:20;;;;;;;18.15;5.20;;;1.00;93.30;;;;;;5013026;28;20525;-79
2021/04/06 06:14:53;;;;;;;13.13;3.35;;;0.90;93.30;;;;;;5010315;28;20402;-79
2021/04/06 06:17:25;;;;;;;11.82;4.22;;;1.10;93.20;;;;;;5040397;28;20095;-79
2021/04/06 06:19:57;;;;;;;15.23;4.38;;;1.10;93.10;;;;;;5042854;28;20123;-79
2021/04/06 06:22:27;;;;;;;13.20;3.88;;;1.20;93.10;;;;;;5005104;28;20033;-80
2021/04/06 06:25:08;;;;;;;22.33;5.93;;;1.10;93.10;;;;;;5017151;28;20045;-79
2021/04/06 06:27:40;;;;;;;20.52;5.47;;;1.00;93.20;;;;;;5047829;28;20045;-80
2021/04/06 06:30:38;;;;;;;15.88;5.03;;;1.00;93.30;;;;;;5046614;28;20509;-80
2021/04/06 06:33:22;;;;;;;25.05;6.88;;;0.90;93.30;;;;;;5024908;28;20032;-78
2021/04/06 06:36:10;;;;;;;21.60;4.85;;;0.90;93.40;;;;;;5043420;28;20033;-79
2021/04/06 06:38:38;;;;;;;10.13;3.22;;;0.80;93.80;;;;;;5040548;28;20033;-79
2021/04/06 06:41:14;;;;;;;7.30;4.03;;;0.90;93.60;;;;;;5047648;28;20037;-79
2021/04/06 06:43:44;;;;;;;8.50;2.45;;;0.90;93.40;;;;;;5035762;28;20044;-80
2021/04/06 06:46:23;;;;;;;12.00;4.13;;;0.90;93.30;;;;;;5013845;28;20501;-80
2021/04/06 06:48:56;;;;;;;6.55;2.83;;;1.00;93.10;;;;;;5008740;28;20495;-80
2021/04/06 06:51:28;;;;;;;10.18;4.57;;;1.10;93.20;;;;;;5018799;28;20269;-80
2021/04/06 06:53:54;;;;;;;15.15;5.50;;;1.00;93.10;;;;;;5044835;28;20392;-79
2021/04/06 06:56:20;;;;;;;21.05;6.75;;;1.00;93.20;;;;;;5045247;28;20037;-79
2021/04/06 06:58:45;;;;;;;11.65;4.65;;;0.90;93.30;;;;;;5033355;28;20053;-79
2021/04/06 07:01:24;;;;;;;15.90;6.95;;;0.90;93.20;;;;;;5033833;28;20037;-79
2021/04/06 07:04:06;;;;;;;16.52;6.28;;;0.90;93.50;;;;;;5008635;28;20396;-80
2021/04/06 07:06:32;;;;;;;27.95;7.18;;;0.90;93.30;;;;;;5059984;28;20022;-79
2021/04/06 07:08:58;;;;;;;24.48;8.25;;;0.90;93.40;;;;;;5019279;28;20399;-79
2021/04/06 07:11:23;;;;;;;16.20;5.45;;;0.90;93.50;;;;;;5019818;28;20029;-79
2021/04/06 07:13:51;;;;;;;27.00;9.60;;;0.90;93.50;;;;;;5013210;28;20056;-79
2021/04/06 07:16:17;;;;;;;26.00;8.95;;;0.90;93.50;;;;;;5038507;28;20041;-79
2021/04/06 07:18:42;;;;;;;18.98;6.28;;;1.10;93.50;;;;;;5023270;28;20029;-79
2021/04/06 07:21:09;;;;;;;14.98;4.45;;;1.00;93.40;;;;;;5033332;28;20056;-79
2021/04/06 07:23:38;;;;;;;41.60;11.95;;;1.10;93.30;;;;;;5042422;28;20032;-79
2021/04/06 07:26:08;;;;;;;17.77;7.70;;;1.10;93.30;;;;;;5043241;28;20033;-79
2021/04/06 07:28:34;;;;;;;25.48;11.02;;;1.10;93.40;;;;;;5047377;28;20033;-78
2021/04/06 07:31:02;;;;;;;55.03;10.82;;;1.10;93.10;;;;;;5007545;28;20053;-79
2021/04/06 07:33:27;;;;;;;18.45;7.00;;;1.10;93.30;;;;;;5010350;28;20363;-79
2021/04/06 07:35:53;;;;;;;10.68;3.72;;;1.10;93.60;;;;;;5022547;28;20041;-79
2021/04/06 07:38:30;;;;;;;12.55;4.75;;;1.30;93.40;;;;;;5021542;28;20033;-79
2021/04/06 07:40:56;;;;;;;10.98;5.40;;;1.30;93.60;;;;;;5034868;28;20060;-79
2021/04/06 07:43:22;;;;;;;14.57;5.40;;;1.20;93.70;;;;;;5009851;28;20033;-79
2021/04/06 07:45:47;;;;;;;15.80;5.10;;;1.30;93.50;;;;;;5047629;28;20049;-78
2021/04/06 07:48:46;;;;;;;7.03;3.08;;;1.40;93.50;;;;;;5043669;28;20038;-78
2021/04/06 07:51:21;;;;;;;18.17;7.18;;;1.30;94.10;;;;;;5028215;28;20064;-78
2021/04/06 07:53:58;;;;;;;22.83;10.23;;;1.40;94.00;;;;;;5021969;28;20097;-78
2021/04/06 07:56:42;;;;;;;15.02;6.50;;;1.40;93.50;;;;;;5020719;28;20041;-78
2021/04/06 07:59:08;;;;;;;16.55;5.95;;;1.60;94.50;;;;;;5049218;28;20044;-78
2021/04/06 08:01:34;;;;;;;19.75;8.43;;;1.70;94.40;;;;;;5045073;28;20083;-78
2021/04/06 08:04:03;;;;;;;16.65;7.35;;;1.60;94.50;;;;;;5007866;28;20029;-78
2021/04/06 08:06:45;;;;;;;12.00;5.53;;;1.70;94.50;;;;;;5028620;28;20029;-78
2021/04/06 08:09:42;;;;;;;7.75;4.22;;;1.80;94.70;;;;;;5014585;28;20041;-78
2021/04/06 08:12:25;;;;;;;15.18;6.70;;;2.00;94.50;;;;;;5041200;28;20503;-78
2021/04/06 08:15:04;;;;;;;10.13;3.35;;;1.90;94.10;;;;;;5037556;28;20041;-78
2021/04/06 08:17:30;;;;;;;16.33;6.03;;;2.10;94.70;;;;;;5033630;28;20049;-78
2021/04/06 08:20:20;;;;;;;13.38;5.10;;;2.20;94.30;;;;;;5051287;28;20044;-78
2021/04/06 08:23:06;;;;;;;8.27;3.47;;;2.10;94.20;;;;;;5030414;28;20036;-78
2021/04/06 08:25:32;;;;;;;11.60;4.45;;;2.20;94.60;;;;;;5031307;28;20041;-78
2021/04/06 08:27:59;;;;;;;22.65;5.32;;;2.10;94.20;;;;;;5047531;28;20464;-78
2021/04/06 08:30:30;;;;;;;6.05;2.80;;;2.30;94.50;;;;;;5024923;28;20452;-78
2021/04/06 08:32:58;;;;;;;18.08;4.28;;;2.50;94.20;;;;;;5013374;28;20107;-78
2021/04/06 08:35:45;;;;;;;8.18;3.25;;;2.10;93.50;;;;;;5046658;28;20033;-78
2021/04/06 08:38:23;;;;;;;14.75;3.30;;;2.30;94.60;;;;;;5043030;28;20048;-78
2021/04/06 08:41:12;;;;;;;6.68;3.20;;;2.20;93.80;;;;;;5043806;28;20035;-78
2021/04/06 08:43:49;;;;;;;10.23;3.28;;;2.20;94.80;;;;;;5022549;28;20051;-78
2021/04/06 08:46:42;;;;;;;8.63;3.40;;;2.60;94.80;;;;;;5005131;28;20041;-77
2021/04/06 08:49:23;;;;;;;8.73;3.03;;;2.40;94.20;;;;;;5031285;28;20041;-78
2021/04/06 08:52:10;;;;;;;10.38;3.80;;;2.00;94.40;;;;;;5014554;28;20151;-77
2021/04/06 08:54:35;;;;;;;17.95;5.70;;;2.10;93.80;;;;;;5063461;28;20121;-77
2021/04/06 08:57:06;;;;;;;14.23;3.88;;;2.00;93.60;;;;;;5021935;28;20117;-77
2021/04/06 08:59:33;;;;;;;10.75;2.38;;;1.80;93.80;;;;;;5015801;28;20029;-77
2021/04/06 09:02:14;;;;;;;13.52;3.10;;;1.90;94.40;;;;;;5012964;28;20056;-77
2021/04/06 09:04:47;;;;;;;10.10;2.88;;;1.80;93.70;;;;;;5061853;28;20460;-75
2021/04/06 09:07:20;;;;;;;14.13;5.15;;;1.90;94.20;;;;;;5030739;28;20043;-77
2021/04/06 09:09:46;;;;;;;13.85;3.55;;;1.80;93.90;;;;;;5024345;28;20542;-76
2021/04/06 09:12:15;;;;;;;11.45;1.85;;;1.80;94.00;;;;;;5022241;28;20044;-77
2021/04/06 09:14:41;;;;;;;9.88;3.45;;;1.70;94.20;;;;;;5021037;28;20548;-77
2021/04/06 09:17:06;;;;;;;11.70;3.30;;;1.90;94.20;;;;;;5008548;28;20127;-77
2021/04/06 09:19:34;;;;;;;11.35;3.55;;;1.90;94.00;;;;;;5037305;28;20044;-77
2021/04/06 09:22:05;;;;;;;16.88;3.55;;;2.00;94.00;;;;;;5025884;28;20045;-76
2021/04/06 09:24:30;;;;;;;9.85;3.17;;;1.90;94.30;;;;;;5020482;28;20033;-76
2021/04/06 09:27:02;;;;;;;16.92;3.88;;;2.00;94.00;;;;;;5022240;28;20041;-76
2021/04/06 09:29:34;;;;;;;13.27;4.28;;;2.00;94.00;;;;;;5043688;28;20378;-76
2021/04/06 09:32:29;;;;;;;11.35;3.97;;;2.10;93.80;;;;;;5028677;28;20115;-78
2021/04/06 09:34:55;;;;;;;5.55;1.45;;;2.10;94.50;;;;;;5022307;28;20480;-78
2021/04/06 09:37:28;;;;;;;8.35;2.90;;;2.10;93.80;;;;;;5020529;28;20037;-78
2021/04/06 09:39:54;;;;;;;12.00;2.35;;;2.20;93.60;;;;;;5033177;28;20040;-78
2021/04/06 09:42:20;;;;;;;5.93;2.05;;;2.10;94.10;;;;;;5010925;28;20520;-78
2021/04/06 09:44:46;;;;;;;6.15;2.33;;;2.20;93.90;;;;;;5019606;28;20270;-77
2021/04/06 09:47:13;;;;;;;10.40;3.47;;;2.20;93.40;;;;;;5015787;28;20537;-78
2021/04/06 09:49:44;;;;;;;12.15;3.08;;;2.30;94.00;;;;;;5023454;28;20029;-77
2021/04/06 09:52:15;;;;;;;4.63;2.17;;;2.50;93.70;;;;;;5036392;28;20188;-77
2021/04/06 09:54:54;;;;;;;6.68;2.45;;;2.70;93.70;;;;;;5026128;28;20072;-77
2021/04/06 09:57:21;;;;;;;5.10;2.03;;;2.80;93.60;;;;;;5012009;28;20065;-77
2021/04/06 09:59:52;;;;;;;9.27;2.10;;;3.10;94.30;;;;;;5013058;28;20040;-77
2021/04/06 10:02:20;;;;;;;6.28;1.70;;;3.00;93.70;;;;;;5029477;28;20033;-77
2021/04/06 10:04:46;;;;;;;10.38;2.70;;;2.90;93.90;;;;;;5024276;28;20037;-77
2021/04/06 10:07:18;;;;;;;8.43;2.80;;;3.00;93.30;;;;;;5035512;28;20040;-78
2021/04/06 10:09:57;;;;;;;6.03;2.30;;;2.50;93.60;;;;;;5047426;28;20116;-78
2021/04/06 10:12:28;;;;;;;4.95;1.48;;;2.90;94.30;;;;;;5042686;28;20045;-78
2021/04/06 10:14:54;;;;;;;7.20;2.45;;;2.90;93.60;;;;;;5007601;28;20033;-78
2021/04/06 10:17:21;;;;;;;4.85;2.03;;;2.90;93.70;;;;;;5043366;28;20440;-78
2021/04/06 10:20:06;;;;;;;5.72;2.15;;;2.90;93.70;;;;;;5029283;28;20032;-78
2021/04/06 10:22:42;;;;;;;3.55;1.25;;;2.80;93.90;;;;;;5031562;28;20033;-78
2021/04/06 10:25:08;;;;;;;;;;;2.90;93.20;;;;;;5010371;28;20037;-79
2021/04/06 10:27:37;;;;;;;5.70;1.13;;;2.70;93.30;;;;;;5048314;28;19919;-78
2021/04/06 10:30:28;;;;;;;4.93;1.73;;;2.80;93.30;;;;;;5020486;28;20044;-78
2021/04/06 10:33:07;;;;;;;4.32;1.38;;;2.60;93.40;;;;;;5045139;28;20029;-78
2021/04/06 10:35:38;;;;;;;11.50;1.77;;;2.10;93.70;;;;;;5054969;28;20435;-78
2021/04/06 10:38:04;;;;;;;4.30;1.70;;;2.40;93.60;;;;;;5025534;28;20029;-78
2021/04/06 10:40:36;;;;;;;3.85;1.27;;;2.90;93.30;;;;;;5025145;28;20068;-78
2021/04/06 10:43:11;;;;;;;3.55;0.93;;;2.70;93.50;;;;;;5032148;28;20029;-77
2021/04/06 10:45:39;;;;;;;3.40;1.25;;;2.90;94.10;;;;;;5047817;28;20036;-77
2021/04/06 10:48:12;;;;;;;7.30;1.80;;;3.40;93.60;;;;;;5037714;28;20472;-78
2021/04/06 10:50:48;;;;;;;3.58;1.52;;;3.80;93.50;;;;;;5017454;28;20116;-77
2021/04/06 10:53:15;;;;;;;4.20;1.67;;;4.10;93.60;;;;;;5019287;28;20037;-77
2021/04/06 10:55:41;;;;;;;3.38;1.33;;;4.50;93.40;;;;;;5040579;28;20085;-76
2021/04/06 10:58:07;;;;;;;3.83;1.52;;;4.50;93.20;;;;;;5005340;28;20033;-75
2021/04/06 11:00:34;;;;;;;3.17;1.55;;;4.90;92.10;;;;;;5030212;28;20103;-75
2021/04/06 11:03:39;;;;;;;5.05;2.40;;;4.60;92.00;;;;;;5027156;28;20093;-76
2021/04/06 11:06:11;;;;;;;3.22;1.63;;;4.50;92.20;;;;;;5031991;28;20044;-76
2021/04/06 11:08:39;;;;;;;5.30;1.90;;;4.50;92.60;;;;;;5023966;28;20039;-75
2021/04/06 11:11:15;;;;;;;5.15;1.70;;;4.50;92.50;;;;;;5022323;28;20045;-75
2021/04/06 11:13:41;;;;;;;8.20;1.38;;;4.10;93.00;;;;;;5022272;28;20029;-75
2021/04/06 11:16:06;;;;;;;3.05;1.23;;;4.30;93.10;;;;;;4339605;28;10000108;-76
2021/04/06 11:18:33;;;;;;;3.90;1.30;;;4.70;92.40;;;;;;5025640;28;20037;-75
2021/04/06 11:20:59;;;;;;;6.80;1.73;;;5.00;92.60;;;;;;5042932;28;20531;-75
2021/04/06 11:23:24;;;;;;;11.15;2.47;;;5.30;91.80;;;;;;5039957;28;20029;-75
2021/04/06 11:25:50;;;;;;;3.60;1.75;;;5.40;91.80;;;;;;5010592;28;20146;-76
2021/04/06 11:28:15;;;;;;;6.60;1.60;;;5.60;91.70;;;;;;5055709;28;20123;-75
2021/04/06 11:30:42;;;;;;;2.78;1.10;;;5.10;92.10;;;;;;5015645;28;20099;-78
2021/04/06 11:33:07;;;;;;;3.65;1.40;;;5.60;92.10;;;;;;5006765;28;20030;-75
2021/04/06 11:35:33;;;;;;;5.32;0.75;;;5.70;92.10;;;;;;5060255;28;20377;-75
2021/04/06 11:37:59;;;;;;;4.53;1.27;;;5.90;91.90;;;;;;5035586;28;20052;-76
2021/04/06 11:40:25;;;;;;;2.33;1.38;;;5.90;91.40;;;;;;5008484;28;20121;-75
2021/04/06 11:42:51;;;;;;;2.00;1.05;;;5.90;91.00;;;;;;5021982;28;20033;-75
2021/04/06 11:45:21;;;;;;;7.35;1.55;;;6.00;91.20;;;;;;5038340;28;20037;-75
2021/04/06 11:47:47;;;;;;;2.00;0.80;;;6.10;90.40;;;;;;5022501;28;20122;-75
2021/04/06 11:50:13;;;;;;;2.58;1.27;;;5.80;90.80;;;;;;5045019;28;20036;-75
2021/04/06 11:52:38;;;;;;;3.33;1.30;;;6.10;89.60;;;;;;5046859;28;20032;-75
2021/04/06 11:55:04;;;;;;;6.95;1.25;;;6.10;88.90;;;;;;5044502;28;20052;-75
2021/04/06 11:57:30;;;;;;;6.35;1.60;;;5.40;90.10;;;;;;5061501;28;20061;-75
2021/04/06 11:59:56;;;;;;;4.25;1.58;;;4.30;91.10;;;;;;5026255;28;20107;-75
2021/04/06 12:02:22;;;;;;;4.93;1.50;;;4.80;91.20;;;;;;5042418;28;20043;-76
2021/04/06 12:04:48;;;;;;;12.30;1.77;;;4.30;91.70;;;;;;5010321;28;20037;-76
2021/04/06 12:07:13;;;;;;;3.05;1.38;;;3.90;91.70;;;;;;5019377;28;20555;-76
2021/04/06 12:09:39;;;;;;;7.97;1.90;;;3.50;91.50;;;;;;5021589;28;20123;-75
2021/04/06 12:12:05;;;;;;;7.07;1.52;;;3.10;92.00;;;;;;5007092;28;20033;-76
2021/04/06 12:14:30;;;;;;;10.10;1.90;;;2.50;92.60;;;;;;5020098;28;20044;-77
2021/04/06 12:16:56;;;;;;;4.72;1.70;;;2.70;93.30;;;;;;5014345;28;20112;-77
2021/04/06 12:19:22;;;;;;;2.47;1.95;;;2.90;92.90;;;;;;5028769;28;20396;-78
2021/04/06 12:21:47;;;;;;;3.20;1.50;;;3.00;92.50;;;;;;5003763;28;20439;-78
2021/04/06 12:24:13;;;;;;;2.25;1.60;;;2.80;92.40;;;;;;5009958;28;20035;-80
2021/04/06 12:26:39;;;;;;;1.83;1.13;;;2.40;92.60;;;;;;5040227;28;20029;-79
2021/04/06 12:29:04;;;;;;;1.55;1.45;;;2.30;93.10;;;;;;5046473;28;20480;-80
2021/04/06 12:31:30;;;;;;;3.35;1.23;;;2.50;93.00;;;;;;5012626;28;20120;-80
2021/04/06 12:33:55;;;;;;;3.63;1.23;;;2.50;92.90;;;;;;5023549;28;20447;-80
2021/04/06 12:36:22;;;;;;;5.70;1.50;;;2.30;92.80;;;;;;5022514;28;20461;-78
2021/04/06 12:38:48;;;;;;;2.03;1.20;;;2.50;92.90;;;;;;5010598;28;20035;-78
2021/04/06 12:41:13;;;;;;;5.03;1.10;;;2.30;92.60;;;;;;5038315;28;20116;-76
2021/04/06 12:43:39;;;;;;;1.77;1.05;;;2.30;93.50;;;;;;5022361;28;20508;-77
2021/04/06 12:46:04;;;;;;;2.28;0.93;;;2.60;93.00;;;;;;5047263;28;20037;-77
2021/04/06 12:48:30;;;;;;;5.70;1.00;;;2.40;93.70;;;;;;5039224;28;20094;-78
2021/04/06 12:50:56;;;;;;;6.32;1.58;;;2.40;93.20;;;;;;5012641;28;20541;-80
2021/04/06 12:53:21;;;;;;;4.47;1.05;;;2.50;93.70;;;;;;5008733;28;20033;-78
2021/04/06 12:55:47;;;;;;;1.88;1.48;;;2.60;93.80;;;;;;5015862;28;20387;-78
2021/04/06 12:58:12;;;;;;;4.45;1.35;;;2.50;93.70;;;;;;5021259;28;20025;-78
2021/04/06 13:00:38;;;;;;;3.17;1.75;;;3.20;93.50;;;;;;5010565;28;20032;-79
2021/04/06 13:03:03;;;;;;;4.53;1.50;;;3.60;93.40;;;;;;5040822;28;20029;-77
2021/04/06 13:05:29;;;;;;;4.28;2.13;;;3.10;93.40;;;;;;5047401;28;20071;-77